Chronik & Geschichte

Boeing Stearman am Flugplatz Konstanz

Mit seiner 107-jährigen Geschichte ist Konstanz der älteste Verkehrslandeplatz Deutschlands. Lesen Sie unsere Festschrift zum 100-jährigen Platzjubiläum oder entdecken Sie die ausführliche Flugplatzchronik auf der Website der Initiative PRO Flugplatz Konstanz.

Live am Platz

Die Bilder unserer Webcams werden alle 5 Minuten aktualisiert.

Sonnenaufgang:

05:57 UTC / 07:57 Lokal

Sonnenuntergang:

16:17 UTC / 18:17 Lokal

METAR (26.10.2021 11:50 UTC):

EDNY 261150Z 23003KT 180V310 CAVOK 14/08 Q1025
VFR

TAF (26.10.2021 11:00 UTC):

TAF EDNY 261100Z 2612/2712 VRB02KT 9999 FEW020 SCT030 BECMG 2618/2621 2000 BCFG TEMPO 2621/2708 0700 FG SCT001 BKN002 BECMG 2708/2710 9000 BKN003 BECMG 2710/2712 FEW005

Alle Angaben unverbindlich und ohne Gewähr. Zeiten genähert.

Für den Verkehrslandeplatz Konstanz werden keine offiziellen Wetterinformationen ausgegeben. Daher werden zur Orientierung Daten des nahegelegenen Flughafens Friedrichshafen dargestellt.

Das Landeentgelt kann bei uns auch mit aerops bezahlt werden. Die App für's Handy ist kostenfrei erhältlich.